Hauptseite
METAR-TAF:

METAR-TAF

Flughäfen :

Flughafen Kairo

Kairo, Ägypten

Breite: 30-08N, Länge: 031-24E, Höhe: 64 m

Beobachtung

Neuester Wetterbericht von vor 11 Minuten, um 04:00 UTC
Wind 4 kt aus Nord/Nordost
Temperatur 25°C
Luftfeuchtigkeit 89%
Luftdruck 1013 hPa
Sichtweite 10 km oder mehr
keine Wolken unter 1500 m und keine Kumulonimbus oder Gewitterwolken

METAR: HECA 230400Z 03004KT CAVOK 25/23 Q1013 NOSIG

Zeit: 06:11 (04:11 UTC)

Prognose

Neuester Wetterbericht von vor 5 Stunden und 11 Minuten, um 23:00 UTC
Gültige Prognose vom 23 um 00 UTC bis 24 um 06 UTC
Wind 12 kt aus Nord/Nordost
Sichtweite 10 km oder mehr
keine Wolken unter 1500 m und keine Kumulonimbus oder Gewitterwolken
Zeitweise
vom 23 um 03 UTC bis 23 um 06 UTC
Wind 3 kt aus unterschiedlichen Richtungen

TAF: HECA 222300Z 2300/2406 03012KT CAVOK TEMPO 2303/2306 VRB03KT 4000HZ NSC

Wetterbeobachtungen und Prognosen von mehr als 4000 Flughäfen (METAR und TAF Bericht).

Die verfügbaren Stationen werden durch gelbe und rote Markierungen auf der Karte dargestellt.

Führen Sie die Maus auf sie, um den Namen der Station zu sehen.

Darauf klicken, um die Beobachtung von Wetterbeobachtungen und Prognosen zu sehen.

Um die Karte zu ändern : klicken Sie auf den grünen Tasten mit einem schwarzen Kreuz Zum Vergrößern, auf den grünen Button mit einem Gedankenstrich zu verkleinern, oder auf die grünen Pfeile für benachbarte Karten.


METAR-TAF: